createdAt,value
2018-03-27T00:01:48.987Z,2.00
2018-03-27T00:04:15.193Z,2.00
2018-03-27T00:06:42.228Z,2.00
2018-03-27T00:09:08.447Z,1.90
2018-03-27T00:11:34.685Z,2.00
2018-03-27T00:14:00.900Z,1.90
2018-03-27T00:16:27.245Z,1.90
2018-03-27T00:18:53.550Z,1.90
2018-03-27T00:21:19.762Z,1.90
2018-03-27T00:23:45.991Z,1.80
2018-03-27T00:26:12.318Z,1.80
2018-03-27T00:28:50.855Z,1.80
2018-03-27T00:31:29.437Z,1.70
2018-03-27T00:34:07.950Z,1.70
2018-03-27T00:36:46.457Z,1.60
2018-03-27T00:39:25.594Z,1.60
2018-03-27T00:45:03.889Z,1.60
2018-03-27T00:47:30.149Z,1.60
2018-03-27T00:49:57.099Z,1.60
2018-03-27T00:52:23.329Z,1.60
2018-03-27T00:54:49.533Z,1.50
2018-03-27T00:57:15.757Z,1.50
2018-03-27T00:59:41.972Z,1.50
2018-03-27T01:02:08.296Z,1.50
2018-03-27T01:04:34.519Z,1.50
2018-03-27T01:07:00.804Z,1.50
2018-03-27T01:09:27.032Z,1.50
2018-03-27T01:11:54.040Z,1.40
2018-03-27T01:14:20.414Z,1.40
2018-03-27T01:16:46.631Z,1.40
2018-03-27T01:19:13.589Z,1.40
2018-03-27T01:21:39.830Z,1.40
2018-03-27T01:24:06.099Z,1.40
2018-03-27T01:26:32.711Z,1.30
2018-03-27T01:28:58.934Z,1.30
2018-03-27T01:31:25.165Z,1.30
2018-03-27T01:33:51.395Z,1.30
2018-03-27T01:36:17.619Z,1.30
2018-03-27T01:38:43.871Z,1.20
2018-03-27T01:41:10.073Z,1.20
2018-03-27T01:43:36.481Z,1.20
2018-03-27T01:46:03.479Z,1.10
2018-03-27T01:48:29.691Z,1.10
2018-03-27T01:50:55.971Z,1.10
2018-03-27T01:53:22.168Z,1.10
2018-03-27T01:55:48.428Z,1.20
2018-03-27T01:58:14.656Z,1.10
2018-03-27T02:00:40.886Z,1.10
2018-03-27T02:03:07.413Z,1.10
2018-03-27T02:05:33.637Z,1.10
2018-03-27T02:07:59.866Z,1.00
2018-03-27T02:10:26.090Z,1.00
2018-03-27T02:12:58.802Z,1.00
2018-03-27T02:15:32.037Z,1.00
2018-03-27T02:18:04.769Z,0.90
2018-03-27T02:20:37.822Z,0.90
2018-03-27T02:23:10.168Z,0.90
2018-03-27T02:25:36.412Z,0.90
2018-03-27T02:28:02.673Z,0.90
2018-03-27T02:30:29.285Z,0.90
2018-03-27T02:32:55.500Z,0.90
2018-03-27T02:35:21.741Z,0.90
2018-03-27T02:37:48.051Z,0.90
2018-03-27T02:40:14.625Z,0.90
2018-03-27T02:42:40.831Z,0.90
2018-03-27T02:45:07.052Z,0.90
2018-03-27T02:47:33.274Z,0.90
2018-03-27T02:49:59.501Z,0.90
2018-03-27T02:52:25.722Z,0.80
2018-03-27T02:54:51.945Z,0.80
2018-03-27T02:57:18.233Z,0.80
2018-03-27T02:59:44.453Z,0.80
2018-03-27T03:02:10.745Z,0.80
2018-03-27T03:04:36.995Z,0.80
2018-03-27T03:07:03.232Z,0.80
2018-03-27T03:09:30.270Z,0.80
2018-03-27T03:11:56.478Z,0.80
2018-03-27T03:14:22.721Z,0.80
2018-03-27T03:16:49.423Z,0.80
2018-03-27T03:19:16.785Z,0.70
2018-03-27T03:21:43.770Z,0.70
2018-03-27T03:24:10.366Z,0.70
2018-03-27T03:26:36.679Z,0.70
2018-03-27T03:29:02.965Z,0.70
2018-03-27T03:31:30.842Z,0.70
2018-03-27T03:33:57.065Z,0.70
2018-03-27T03:36:23.375Z,0.70
2018-03-27T03:38:49.654Z,0.60
2018-03-27T03:41:15.917Z,0.60
2018-03-27T03:43:42.862Z,0.60
2018-03-27T03:46:09.805Z,0.60
2018-03-27T03:48:36.033Z,0.60
2018-03-27T03:51:02.982Z,0.50
2018-03-27T03:53:29.981Z,0.50
2018-03-27T03:55:56.256Z,0.50
2018-03-27T03:58:23.236Z,0.50
2018-03-27T04:00:49.433Z,0.50
2018-03-27T04:03:16.374Z,0.50
2018-03-27T04:05:43.729Z,0.50
2018-03-27T04:08:10.674Z,0.50
2018-03-27T04:10:37.663Z,0.50
2018-03-27T04:13:03.884Z,0.50
2018-03-27T04:15:30.141Z,0.50
2018-03-27T04:17:57.153Z,0.50
2018-03-27T04:20:23.417Z,0.50
2018-03-27T04:22:49.638Z,0.50
2018-03-27T04:25:15.974Z,0.50
2018-03-27T04:27:42.200Z,0.40
2018-03-27T04:30:08.448Z,0.40
2018-03-27T04:32:34.660Z,0.40
2018-03-27T04:35:00.913Z,0.50
2018-03-27T04:37:27.137Z,0.50
2018-03-27T04:39:54.502Z,0.40
2018-03-27T04:42:21.498Z,0.40
2018-03-27T04:44:47.706Z,0.40
2018-03-27T04:47:13.975Z,0.40
2018-03-27T04:49:40.187Z,0.40
2018-03-27T04:52:06.523Z,0.40
2018-03-27T04:54:32.729Z,0.40
2018-03-27T04:56:59.018Z,0.40
2018-03-27T04:59:25.237Z,0.40
2018-03-27T05:01:51.470Z,0.40
2018-03-27T05:04:17.763Z,0.40
2018-03-27T05:06:43.997Z,0.40
2018-03-27T05:09:10.225Z,0.40
2018-03-27T05:11:36.491Z,0.30
2018-03-27T05:14:02.779Z,0.30
2018-03-27T05:16:29.008Z,0.30
2018-03-27T05:18:55.269Z,0.30
2018-03-27T05:21:21.577Z,0.30
2018-03-27T05:23:47.845Z,0.30
2018-03-27T05:26:14.157Z,0.30
2018-03-27T05:28:40.503Z,0.30
2018-03-27T05:31:07.510Z,0.40
2018-03-27T05:33:33.817Z,0.30
2018-03-27T05:36:00.211Z,0.40
2018-03-27T05:38:26.523Z,0.40
2018-03-27T05:40:52.831Z,0.40
2018-03-27T05:43:19.080Z,0.40
2018-03-27T05:45:45.332Z,0.40
2018-03-27T05:48:11.625Z,0.50
2018-03-27T05:50:37.852Z,0.50
2018-03-27T05:53:04.179Z,0.50
2018-03-27T05:55:30.379Z,0.50
2018-03-27T05:57:57.377Z,0.60
2018-03-27T06:00:23.633Z,0.60
2018-03-27T06:02:49.984Z,0.60
2018-03-27T06:05:16.318Z,0.60
2018-03-27T06:07:43.378Z,0.70
2018-03-27T06:10:09.632Z,0.70
2018-03-27T06:12:35.874Z,0.70
2018-03-27T06:15:02.111Z,0.80
2018-03-27T06:17:28.381Z,0.80
2018-03-27T06:19:55.443Z,0.80
2018-03-27T06:22:21.694Z,0.80
2018-03-27T06:24:48.108Z,0.90
2018-03-27T06:27:14.338Z,0.90
2018-03-27T06:29:40.682Z,0.90
2018-03-27T06:32:06.960Z,1.00
2018-03-27T06:34:33.214Z,1.00
2018-03-27T06:37:00.173Z,1.10
2018-03-27T06:39:26.409Z,1.10
2018-03-27T06:41:52.633Z,1.10
2018-03-27T06:44:18.916Z,1.10
2018-03-27T06:46:45.134Z,1.20
2018-03-27T06:49:11.367Z,1.20
2018-03-27T06:51:37.607Z,1.20
2018-03-27T06:54:03.964Z,1.20
2018-03-27T06:56:31.044Z,1.30
2018-03-27T06:58:57.256Z,1.30
2018-03-27T07:01:23.565Z,1.30
2018-03-27T07:03:50.577Z,1.40
2018-03-27T07:06:16.801Z,1.40
2018-03-27T07:08:43.075Z,1.50
2018-03-27T07:11:09.300Z,1.50
2018-03-27T07:13:35.513Z,1.50
2018-03-27T07:16:01.766Z,1.50
2018-03-27T07:18:28.826Z,1.60
2018-03-27T07:20:55.107Z,1.60
2018-03-27T07:23:21.342Z,1.60
2018-03-27T07:25:47.611Z,1.60
2018-03-27T07:28:14.590Z,1.70
2018-03-27T07:30:40.798Z,1.70
2018-03-27T07:33:07.368Z,1.70
2018-03-27T07:35:33.685Z,1.80
2018-03-27T07:37:59.884Z,1.80
2018-03-27T07:40:27.018Z,1.80
2018-03-27T07:42:53.402Z,1.80
2018-03-27T07:45:19.713Z,1.90
2018-03-27T07:47:45.922Z,1.90
2018-03-27T07:50:12.186Z,2.00
2018-03-27T07:52:38.401Z,2.00
2018-03-27T07:55:04.655Z,2.10
2018-03-27T07:57:30.886Z,2.10
2018-03-27T07:59:57.273Z,2.20
2018-03-27T08:02:24.330Z,2.40
2018-03-27T08:04:50.647Z,2.40
2018-03-27T08:07:16.888Z,2.50
2018-03-27T08:09:43.111Z,2.50
2018-03-27T08:12:10.486Z,2.70
2018-03-27T08:14:36.716Z,2.70
2018-03-27T08:17:02.977Z,2.80
2018-03-27T08:19:29.538Z,2.90
2018-03-27T08:21:55.769Z,3.00
2018-03-27T08:24:22.018Z,3.00
2018-03-27T08:26:48.983Z,3.10
2018-03-27T08:29:15.260Z,3.10
2018-03-27T08:31:41.462Z,3.20
2018-03-27T08:34:07.744Z,3.20
2018-03-27T08:36:34.697Z,3.40
2018-03-27T08:39:01.686Z,3.50
2018-03-27T08:41:27.959Z,3.50
2018-03-27T08:43:54.922Z,3.60
2018-03-27T08:46:21.940Z,3.70
2018-03-27T08:48:48.153Z,3.70
2018-03-27T08:51:14.442Z,3.80
2018-03-27T08:53:40.699Z,3.80
2018-03-27T08:56:07.011Z,3.90
2018-03-27T08:58:33.226Z,4.00
2018-03-27T09:00:59.463Z,4.10
2018-03-27T09:03:26.156Z,4.20
2018-03-27T09:05:52.441Z,4.30
2018-03-27T09:08:18.809Z,4.40
2018-03-27T09:10:45.076Z,4.50
2018-03-27T09:13:12.384Z,4.60
2018-03-27T09:15:38.619Z,4.60
2018-03-27T09:18:05.048Z,4.80
2018-03-27T09:20:31.300Z,4.90
2018-03-27T09:22:57.513Z,5.00
2018-03-27T09:25:23.784Z,5.20
2018-03-27T09:27:50.003Z,5.30
2018-03-27T09:30:17.058Z,5.50
2018-03-27T09:32:44.018Z,5.50
2018-03-27T09:35:10.613Z,5.50
2018-03-27T09:37:36.819Z,5.60
2018-03-27T09:40:03.122Z,5.70
2018-03-27T09:42:29.382Z,5.70
2018-03-27T09:44:56.369Z,5.80
2018-03-27T09:47:23.328Z,5.90
2018-03-27T09:49:49.557Z,5.90
2018-03-27T09:52:15.985Z,5.90
2018-03-27T09:54:42.253Z,6.00
2018-03-27T09:57:08.483Z,6.10
2018-03-27T09:59:34.909Z,6.10
2018-03-27T10:02:01.136Z,6.20
2018-03-27T10:04:27.368Z,6.20
2018-03-27T10:06:53.780Z,6.30
2018-03-27T10:09:20.010Z,6.40
2018-03-27T10:11:46.318Z,6.50
2018-03-27T10:14:13.321Z,6.50
2018-03-27T10:16:39.540Z,6.50
2018-03-27T10:19:05.770Z,6.60
2018-03-27T10:21:32.793Z,6.80
2018-03-27T10:23:59.104Z,6.80
2018-03-27T10:26:26.110Z,6.90
2018-03-27T10:28:52.334Z,6.90
2018-03-27T10:31:18.587Z,7.00
2018-03-27T10:33:44.871Z,7.00
2018-03-27T10:36:11.126Z,7.10
2018-03-27T10:38:37.505Z,7.20
2018-03-27T10:41:04.629Z,7.30
2018-03-27T10:43:31.614Z,7.30
2018-03-27T10:45:57.967Z,7.40
2018-03-27T10:48:24.208Z,7.50
2018-03-27T10:50:50.509Z,7.50
2018-03-27T10:53:16.797Z,7.50
2018-03-27T10:55:43.105Z,7.60
2018-03-27T10:58:10.187Z,7.70
2018-03-27T11:00:37.176Z,7.80
2018-03-27T11:03:10.349Z,7.80
2018-03-27T11:05:36.649Z,7.90
2018-03-27T11:08:03.855Z,8.00
2018-03-27T11:10:30.276Z,8.00
2018-03-27T11:12:56.523Z,8.00
2018-03-27T11:15:22.751Z,8.10
2018-03-27T11:17:49.007Z,8.10
2018-03-27T11:20:15.229Z,8.20
2018-03-27T11:22:41.459Z,8.20
2018-03-27T11:25:07.725Z,8.20
2018-03-27T11:27:34.839Z,8.30
2018-03-27T11:30:01.065Z,8.30
2018-03-27T11:32:27.381Z,8.30
2018-03-27T11:34:53.687Z,8.40
2018-03-27T11:37:19.955Z,8.40
2018-03-27T11:39:46.225Z,8.50
2018-03-27T11:42:13.198Z,8.60
2018-03-27T11:44:39.475Z,8.60
2018-03-27T11:47:05.690Z,8.60
2018-03-27T11:49:31.945Z,8.70
2018-03-27T11:51:58.250Z,8.70
2018-03-27T11:54:24.500Z,8.70
2018-03-27T11:56:50.743Z,8.80
2018-03-27T11:59:17.778Z,9.00
2018-03-27T12:01:44.030Z,9.00
2018-03-27T12:04:11.015Z,9.10
2018-03-27T12:06:37.252Z,9.10
2018-03-27T12:09:03.646Z,9.10
2018-03-27T12:11:29.910Z,9.10
2018-03-27T12:13:56.150Z,9.10
2018-03-27T12:16:22.402Z,9.10
2018-03-27T12:18:48.718Z,9.20
2018-03-27T12:21:14.931Z,9.20
2018-03-27T12:23:41.198Z,9.20
2018-03-27T12:26:07.451Z,9.20
2018-03-27T12:28:34.490Z,9.30
2018-03-27T12:31:01.486Z,9.30
2018-03-27T12:33:27.703Z,9.30
2018-03-27T12:35:53.914Z,9.30
2018-03-27T12:38:20.160Z,9.30
2018-03-27T12:40:46.416Z,9.30
2018-03-27T12:43:12.954Z,9.30
2018-03-27T12:45:39.191Z,9.30
2018-03-27T12:48:05.481Z,9.40
2018-03-27T12:50:31.686Z,9.40
2018-03-27T12:52:58.769Z,9.40
2018-03-27T12:55:25.023Z,9.40
2018-03-27T12:57:51.286Z,9.50
2018-03-27T13:00:18.269Z,9.50
2018-03-27T13:02:44.492Z,9.40
2018-03-27T13:05:10.780Z,9.50
2018-03-27T13:07:36.992Z,9.40
2018-03-27T13:10:03.233Z,9.40
2018-03-27T13:12:29.434Z,9.50
2018-03-27T13:14:55.789Z,9.50
2018-03-27T13:17:22.005Z,9.60
2018-03-27T13:19:48.314Z,9.60
2018-03-27T13:22:14.554Z,9.70
2018-03-27T13:24:41.883Z,9.70
2018-03-27T13:27:08.108Z,9.70
2018-03-27T13:29:34.384Z,9.70
2018-03-27T13:32:00.614Z,9.70
2018-03-27T13:34:27.169Z,9.70
2018-03-27T13:36:54.290Z,9.70
2018-03-27T13:39:20.536Z,9.70
2018-03-27T13:41:46.898Z,9.70
2018-03-27T13:44:13.187Z,9.70
2018-03-27T13:46:39.435Z,9.70
2018-03-27T13:49:05.672Z,9.70
2018-03-27T13:51:32.630Z,9.80
2018-03-27T13:53:59.595Z,9.80
2018-03-27T13:56:25.813Z,9.90
2018-03-27T13:58:52.054Z,9.90
2018-03-27T14:01:18.281Z,10.00
2018-03-27T14:03:44.510Z,10.00
2018-03-27T14:06:13.042Z,10.00
2018-03-27T14:08:39.251Z,10.00
2018-03-27T14:11:05.490Z,10.00
2018-03-27T14:13:32.542Z,10.00
2018-03-27T14:15:58.775Z,10.00
2018-03-27T14:18:25.057Z,10.00
2018-03-27T14:20:51.310Z,10.00
2018-03-27T14:23:17.887Z,9.90
2018-03-27T14:25:44.102Z,10.00
2018-03-27T14:28:10.326Z,10.00
2018-03-27T14:30:36.648Z,10.00
2018-03-27T14:33:02.898Z,10.00
2018-03-27T14:35:29.522Z,10.00
2018-03-27T14:37:55.805Z,10.00
2018-03-27T14:40:22.125Z,10.00
2018-03-27T14:42:49.083Z,10.00
2018-03-27T14:45:15.297Z,10.00
2018-03-27T14:47:42.344Z,10.10
2018-03-27T14:50:09.318Z,10.10
2018-03-27T14:52:35.612Z,10.10
2018-03-27T14:55:02.720Z,10.10
2018-03-27T14:57:28.965Z,10.10
2018-03-27T14:59:55.359Z,10.10
2018-03-27T15:02:21.590Z,10.20
2018-03-27T15:04:47.915Z,10.20
2018-03-27T15:07:14.190Z,10.20
2018-03-27T15:09:40.490Z,10.10
2018-03-27T15:12:06.806Z,10.10
2018-03-27T15:14:33.022Z,10.10
2018-03-27T15:16:59.382Z,10.10
2018-03-27T15:19:25.654Z,10.10
2018-03-27T15:21:52.598Z,10.10
2018-03-27T15:24:18.902Z,10.10
2018-03-27T15:26:45.125Z,10.10
2018-03-27T15:29:11.341Z,10.10
2018-03-27T15:31:37.589Z,10.10
2018-03-27T15:34:03.885Z,10.00
2018-03-27T15:36:30.180Z,10.10
2018-03-27T15:38:57.525Z,10.00
2018-03-27T15:41:23.766Z,10.00
2018-03-27T15:43:50.741Z,10.00
2018-03-27T15:46:16.990Z,10.00
2018-03-27T15:48:43.240Z,10.00
2018-03-27T15:51:09.494Z,10.00
2018-03-27T15:53:35.702Z,10.00
2018-03-27T15:56:01.927Z,10.00
2018-03-27T15:58:28.145Z,9.90
2018-03-27T16:00:54.481Z,9.90
2018-03-27T16:03:23.770Z,9.90
2018-03-27T16:05:50.134Z,9.90
2018-03-27T16:08:17.147Z,9.80
2018-03-27T16:10:43.362Z,9.80
2018-03-27T16:13:09.609Z,9.80
2018-03-27T16:15:36.184Z,9.80
2018-03-27T16:18:02.616Z,9.80
2018-03-27T16:20:28.771Z,9.70
2018-03-27T16:22:56.134Z,9.70
2018-03-27T16:25:22.383Z,9.70
2018-03-27T16:27:48.622Z,9.70
2018-03-27T16:30:14.865Z,9.60
2018-03-27T16:32:41.113Z,9.60
2018-03-27T16:35:07.374Z,9.60
2018-03-27T16:37:34.319Z,9.50
2018-03-27T16:40:00.593Z,9.50
2018-03-27T16:42:26.844Z,9.50
2018-03-27T16:44:53.096Z,9.50
2018-03-27T16:47:20.071Z,9.40
2018-03-27T16:49:46.303Z,9.40
2018-03-27T16:52:12.523Z,9.40
2018-03-27T16:54:38.734Z,9.40
2018-03-27T16:57:05.770Z,9.30
2018-03-27T16:59:32.752Z,9.30
2018-03-27T17:01:58.957Z,9.30
2018-03-27T17:04:25.231Z,9.30
2018-03-27T17:06:51.495Z,9.20
2018-03-27T17:09:17.728Z,9.20
2018-03-27T17:11:43.966Z,9.10
2018-03-27T17:14:10.913Z,9.10
2018-03-27T17:16:37.892Z,9.10
2018-03-27T17:19:04.135Z,9.00
2018-03-27T17:21:30.572Z,9.00
2018-03-27T17:23:56.815Z,9.00
2018-03-27T17:26:23.081Z,9.00
2018-03-27T17:28:50.059Z,8.90
2018-03-27T17:31:16.327Z,8.90
2018-03-27T17:33:42.577Z,8.90
2018-03-27T17:36:08.858Z,8.80
2018-03-27T17:38:35.309Z,8.80
2018-03-27T17:41:01.578Z,8.80
2018-03-27T17:43:28.560Z,8.80
2018-03-27T17:45:54.769Z,8.70
2018-03-27T17:48:21.711Z,8.70
2018-03-27T17:50:48.754Z,8.70
2018-03-27T17:53:15.770Z,8.60
2018-03-27T17:55:41.970Z,8.60
2018-03-27T17:58:08.216Z,8.50
2018-03-27T18:00:34.497Z,8.50
2018-03-27T18:03:01.506Z,8.50
2018-03-27T18:05:27.786Z,8.50
2018-03-27T18:07:54.034Z,8.50
2018-03-27T18:10:20.297Z,8.50
2018-03-27T18:12:46.540Z,8.40
2018-03-27T18:15:12.746Z,8.40
2018-03-27T18:17:38.971Z,8.30
2018-03-27T18:20:05.245Z,8.30
2018-03-27T18:22:31.462Z,8.30
2018-03-27T18:24:58.518Z,8.30
2018-03-27T18:27:24.752Z,8.20
2018-03-27T18:29:51.106Z,8.20
2018-03-27T18:32:17.465Z,8.30
2018-03-27T18:34:43.791Z,8.20
2018-03-27T18:37:10.151Z,8.20
2018-03-27T18:39:36.381Z,8.10
2018-03-27T18:42:02.656Z,8.20
2018-03-27T18:44:28.876Z,8.20
2018-03-27T18:46:55.142Z,8.10
2018-03-27T18:49:21.522Z,8.10
2018-03-27T18:51:48.517Z,8.10
2018-03-27T18:54:14.814Z,8.00
2018-03-27T18:56:41.085Z,8.00
2018-03-27T18:59:07.780Z,8.00
2018-03-27T19:01:34.004Z,8.00
2018-03-27T19:04:01.357Z,8.00
2018-03-27T19:06:28.428Z,8.00
2018-03-27T19:08:54.682Z,8.00
2018-03-27T19:11:21.119Z,8.00
2018-03-27T19:13:47.672Z,8.00
2018-03-27T19:16:13.975Z,8.00
2018-03-27T19:18:40.210Z,7.90
2018-03-27T19:21:06.464Z,7.90
2018-03-27T19:23:32.723Z,7.90
2018-03-27T19:25:59.858Z,7.90
2018-03-27T19:28:26.122Z,7.90
2018-03-27T19:30:52.338Z,7.80
2018-03-27T19:33:19.354Z,7.80
2018-03-27T19:35:45.561Z,7.80
2018-03-27T19:38:11.786Z,7.80
2018-03-27T19:40:37.976Z,7.70
2018-03-27T19:43:04.197Z,7.70
2018-03-27T19:45:31.182Z,7.70
2018-03-27T19:47:57.391Z,7.70
2018-03-27T19:50:23.642Z,7.70
2018-03-27T19:52:49.896Z,7.70
2018-03-27T19:55:16.178Z,7.70
2018-03-27T19:57:42.414Z,7.70
2018-03-27T20:00:08.626Z,7.60
2018-03-27T20:02:34.832Z,7.60
2018-03-27T20:05:01.890Z,7.60
2018-03-27T20:07:28.842Z,7.60
2018-03-27T20:09:55.789Z,7.60
2018-03-27T20:12:24.808Z,7.60
2018-03-27T20:14:51.114Z,7.50
2018-03-27T20:17:18.084Z,7.50
2018-03-27T20:19:44.384Z,7.50
2018-03-27T20:22:11.359Z,7.50
2018-03-27T20:24:37.607Z,7.50
2018-03-27T20:27:03.813Z,7.50
2018-03-27T20:29:30.769Z,7.40
2018-03-27T20:31:56.989Z,7.40
2018-03-27T20:34:23.217Z,7.40
2018-03-27T20:36:49.575Z,7.40
2018-03-27T20:39:15.787Z,7.40
2018-03-27T20:41:42.062Z,7.40
2018-03-27T20:44:08.277Z,7.40
2018-03-27T20:46:34.929Z,7.40
2018-03-27T20:49:02.038Z,7.40
2018-03-27T20:51:28.344Z,7.30
2018-03-27T20:53:55.053Z,7.30
2018-03-27T20:56:21.304Z,7.30
2018-03-27T20:58:48.329Z,7.30
2018-03-27T21:01:15.073Z,7.30
2018-03-27T21:03:41.313Z,7.30
2018-03-27T21:06:09.441Z,7.30
2018-03-27T21:08:36.435Z,7.30
2018-03-27T21:11:03.759Z,7.20
2018-03-27T21:13:30.840Z,7.20
2018-03-27T21:15:57.884Z,7.20
2018-03-27T21:18:24.837Z,7.20
2018-03-27T21:20:51.852Z,7.20
2018-03-27T21:23:18.602Z,7.20
2018-03-27T21:25:44.809Z,7.20
2018-03-27T21:28:11.033Z,7.10
2018-03-27T21:30:37.399Z,7.10
2018-03-27T21:33:03.652Z,7.10
2018-03-27T21:35:29.872Z,7.10
2018-03-27T21:37:56.819Z,7.00
2018-03-27T21:40:24.150Z,7.00
2018-03-27T21:42:50.364Z,7.00
2018-03-27T21:45:16.754Z,7.00
2018-03-27T21:47:42.957Z,7.00
2018-03-27T21:50:09.918Z,6.90
2018-03-27T21:52:36.149Z,6.90
2018-03-27T21:55:02.363Z,6.90
2018-03-27T21:57:29.322Z,6.90
2018-03-27T21:59:55.528Z,6.90
2018-03-27T22:02:22.874Z,6.80
2018-03-27T22:04:49.110Z,6.80
2018-03-27T22:07:16.121Z,6.80
2018-03-27T22:09:42.339Z,6.80
2018-03-27T22:12:08.633Z,6.80
2018-03-27T22:14:34.867Z,6.80
2018-03-27T22:17:01.090Z,6.80
2018-03-27T22:19:28.076Z,6.80
2018-03-27T22:21:54.298Z,6.80
2018-03-27T22:24:20.873Z,6.80
2018-03-27T22:26:47.839Z,6.80
2018-03-27T22:29:14.847Z,6.70
2018-03-27T22:31:41.134Z,6.70
2018-03-27T22:34:07.349Z,6.70
2018-03-27T22:36:34.302Z,6.70
2018-03-27T22:39:01.274Z,6.70
2018-03-27T22:41:27.537Z,6.70
2018-03-27T22:43:53.934Z,6.70
2018-03-27T22:46:20.189Z,6.70
2018-03-27T22:48:46.400Z,6.70
2018-03-27T22:51:12.638Z,6.70
2018-03-27T22:53:38.917Z,6.70
2018-03-27T22:56:05.901Z,6.60
2018-03-27T22:58:32.214Z,6.60
2018-03-27T23:00:58.516Z,6.60
2018-03-27T23:03:24.741Z,6.60
2018-03-27T23:05:51.737Z,6.60
2018-03-27T23:08:18.001Z,6.60
2018-03-27T23:10:44.409Z,6.60
2018-03-27T23:13:10.682Z,6.60
2018-03-27T23:15:36.884Z,6.60
2018-03-27T23:18:03.196Z,6.60
2018-03-27T23:20:29.610Z,6.60
2018-03-27T23:22:55.823Z,6.60
2018-03-27T23:25:22.846Z,6.60
2018-03-27T23:27:49.049Z,6.50
2018-03-27T23:30:15.302Z,6.50
2018-03-27T23:32:41.574Z,6.50
2018-03-27T23:35:07.828Z,6.50
2018-03-27T23:37:34.068Z,6.50
2018-03-27T23:40:01.094Z,6.50
2018-03-27T23:42:27.388Z,6.50
2018-03-27T23:44:53.675Z,6.50
2018-03-27T23:47:19.930Z,6.50
2018-03-27T23:49:46.155Z,6.50
2018-03-27T23:52:12.516Z,6.40
2018-03-27T23:54:38.713Z,6.50
2018-03-27T23:57:04.932Z,6.40
2018-03-27T23:59:31.331Z,6.40
